Terminal Aerodrome Forecast
Issued by NWS

Home | Current Version | Previous Version | Graphics & Text | Print | Product List | Glossary On
Versions: 1 2 3 4 5 6 7 8 9 10 11 12 13 14 15 16 17 18 19 20
809
FTUS43 KGRB 221720
TAFCWA
TAF
KCWA 221720Z 2218/2318 28006KT P6SM VCSH OVC060
     FM222000 27005KT P6SM SCT060 BKN110
     FM222300 23004KT P6SM SCT120 BKN200
     FM230200 21004KT P6SM SKC
     FM230900 17004KT P6SM SCT250
      TEMPO 2309/2313 4SM BR
     FM231300 20007KT P6SM BKN120 BKN250=

USA.gov is the U.S. government's official web portal to all federal, state and local government web resources and services.